createdAt,value
2022-11-28T00:05:07.574Z,5.85
2022-11-28T00:15:07.635Z,4.96
2022-11-28T00:25:07.941Z,4.79
2022-11-28T00:35:07.984Z,4.86
2022-11-28T00:45:08.302Z,4.73
2022-11-28T00:55:08.383Z,4.75
2022-11-28T01:05:08.717Z,4.62
2022-11-28T01:15:08.776Z,4.34
2022-11-28T01:25:09.091Z,4.29
2022-11-28T01:35:09.159Z,4.36
2022-11-28T01:45:09.470Z,4.28
2022-11-28T01:55:09.553Z,4.24
2022-11-28T02:05:09.884Z,4.25
2022-11-28T02:15:09.950Z,4.07
2022-11-28T02:25:10.263Z,3.82
2022-11-28T02:35:10.332Z,3.72
2022-11-28T02:45:10.798Z,3.68
2022-11-28T02:55:10.766Z,3.75
2022-11-28T03:05:10.979Z,3.83
2022-11-28T03:15:11.211Z,3.86
2022-11-28T03:25:11.499Z,3.80
2022-11-28T03:35:11.325Z,3.79
2022-11-28T03:45:11.658Z,3.64
2022-11-28T03:55:11.722Z,3.62
2022-11-28T04:05:11.939Z,3.70
2022-11-28T04:15:11.988Z,3.70
2022-11-28T04:25:12.328Z,3.62
2022-11-28T04:35:12.388Z,3.64
2022-11-28T04:45:12.907Z,3.58
2022-11-28T04:55:12.747Z,3.71
2022-11-28T05:05:13.085Z,3.61
2022-11-28T05:15:13.319Z,3.58
2022-11-28T05:25:13.414Z,3.54
2022-11-28T05:35:13.464Z,3.58
2022-11-28T05:45:13.802Z,3.52
2022-11-28T05:55:13.866Z,3.57
2022-11-28T06:05:40.299Z,3.53
2022-11-28T06:15:15.176Z,3.47
2022-11-28T06:25:14.490Z,3.34
2022-11-28T06:35:14.712Z,3.36
2022-11-28T06:45:14.881Z,3.57
2022-11-28T06:55:14.831Z,3.60
2022-11-28T07:05:15.161Z,3.60
2022-11-28T07:15:15.219Z,3.71
2022-11-28T07:25:15.826Z,3.88
2022-11-28T07:35:15.678Z,3.96
2022-11-28T07:45:15.808Z,4.10
2022-11-28T07:55:15.996Z,4.18
2022-11-28T08:05:16.349Z,4.22
2022-11-28T08:15:16.480Z,4.52
2022-11-28T08:25:16.483Z,4.73
2022-11-28T08:35:16.650Z,4.89
2022-11-28T08:45:17.040Z,5.25
2022-11-28T08:55:19.932Z,5.32
2022-11-28T09:05:17.221Z,5.34
2022-11-28T09:15:17.385Z,5.77
2022-11-28T09:25:17.615Z,6.07
2022-11-28T09:35:17.786Z,6.48
2022-11-28T09:45:18.015Z,6.36
2022-11-28T09:55:18.186Z,6.13
2022-11-28T10:05:18.410Z,6.14
2022-11-28T10:15:18.588Z,6.25
2022-11-28T10:25:18.859Z,6.66
2022-11-28T10:35:19.304Z,7.38
2022-11-28T10:45:19.165Z,7.50
2022-11-28T10:55:19.351Z,7.52
2022-11-28T11:05:19.580Z,7.79
2022-11-28T11:15:19.745Z,8.22
2022-11-28T11:25:19.971Z,8.60
2022-11-28T11:35:20.129Z,8.54
2022-11-28T11:45:20.366Z,8.48
2022-11-28T11:55:20.551Z,8.83
2022-11-28T12:05:20.766Z,9.34
2022-11-28T12:15:20.929Z,9.60
2022-11-28T12:25:21.162Z,9.38
2022-11-28T12:35:21.329Z,8.69
2022-11-28T12:45:21.562Z,8.79
2022-11-28T12:55:21.731Z,8.97
2022-11-28T13:05:22.640Z,9.12
2022-11-28T13:15:22.195Z,9.58
2022-11-28T13:25:22.396Z,9.66
2022-11-28T13:35:22.565Z,9.56
2022-11-28T13:45:28.421Z,9.34
2022-11-28T13:55:23.982Z,9.34
2022-11-28T14:05:26.435Z,9.21
2022-11-28T14:15:23.325Z,8.91
2022-11-28T14:25:23.719Z,8.88
2022-11-28T14:35:23.668Z,8.86
2022-11-28T14:45:23.787Z,8.60
2022-11-28T14:55:24.233Z,8.50
2022-11-28T15:05:24.125Z,8.44
2022-11-28T15:15:24.289Z,8.26
2022-11-28T15:25:24.520Z,8.17
2022-11-28T15:35:24.692Z,8.15
2022-11-28T15:45:24.926Z,8.07
2022-11-28T15:55:25.297Z,7.97
2022-11-28T16:05:25.299Z,7.75
2022-11-28T16:15:25.465Z,7.62
2022-11-28T16:25:25.665Z,7.45
2022-11-28T16:35:25.847Z,7.37
2022-11-28T16:45:26.114Z,7.27
2022-11-28T16:55:26.062Z,7.27
2022-11-28T17:05:26.323Z,7.24
2022-11-28T17:15:26.891Z,7.20
2022-11-28T17:25:26.661Z,7.23
2022-11-28T17:35:27.139Z,7.27
2022-11-28T17:45:27.066Z,7.31
2022-11-28T17:55:27.200Z,7.22
2022-11-28T18:05:27.454Z,8.07
2022-11-28T18:15:27.529Z,7.85
2022-11-28T18:25:27.927Z,8.02
2022-11-28T18:35:27.880Z,7.79
2022-11-28T18:45:28.275Z,8.83
2022-11-28T18:55:28.114Z,8.60
2022-11-28T19:05:28.317Z,8.54
2022-11-28T19:15:28.697Z,8.94
2022-11-28T19:25:28.679Z,8.33
2022-11-28T19:35:28.854Z,8.72
2022-11-28T19:45:29.289Z,8.47
2022-11-28T19:55:29.498Z,7.87
2022-11-28T20:05:29.404Z,7.58
2022-11-28T20:15:29.555Z,7.42
2022-11-28T20:25:30.044Z,7.38
2022-11-28T20:35:30.008Z,7.69
2022-11-28T20:45:30.180Z,7.63
2022-11-28T20:55:30.252Z,7.67
2022-11-28T21:05:30.488Z,7.47
2022-11-28T21:15:30.673Z,7.22
2022-11-28T21:25:31.101Z,7.01
2022-11-28T21:35:31.044Z,6.79
2022-11-28T21:45:31.250Z,6.58
2022-11-28T21:55:31.261Z,6.44
2022-11-28T22:05:31.613Z,6.40
2022-11-28T22:15:31.556Z,6.33
2022-11-28T22:25:31.845Z,6.35
2022-11-28T22:35:31.983Z,6.36
2022-11-28T22:45:32.135Z,6.16
2022-11-28T22:55:32.354Z,6.28
2022-11-28T23:05:32.391Z,6.13
2022-11-28T23:15:32.592Z,6.10
2022-11-28T23:25:32.897Z,6.14
2022-11-28T23:35:32.859Z,6.19
2022-11-28T23:45:33.009Z,6.09
2022-11-28T23:55:33.116Z,6.06
